createdAt,value
2022-11-22T00:00:38.315Z,93.22
2022-11-22T00:05:41.198Z,92.38
2022-11-22T00:10:44.150Z,92.17
2022-11-22T00:15:58.982Z,91.43
2022-11-22T00:21:07.065Z,91.47
2022-11-22T00:26:12.168Z,91.35
2022-11-22T00:31:16.573Z,90.91
2022-11-22T00:36:19.444Z,90.64
2022-11-22T00:41:22.745Z,90.59
2022-11-22T00:46:27.104Z,90.41
2022-11-22T00:51:30.025Z,90.96
2022-11-22T00:56:33.203Z,92.68
2022-11-22T01:01:37.560Z,92.70
2022-11-22T01:06:40.488Z,92.56
2022-11-22T01:11:44.381Z,92.66
2022-11-22T01:16:49.585Z,92.33
2022-11-22T01:21:52.786Z,92.25
2022-11-22T01:26:56.381Z,92.62
2022-11-22T01:32:00.728Z,92.70
2022-11-22T01:37:03.723Z,92.58
2022-11-22T01:42:06.685Z,93.06
2022-11-22T01:47:14.212Z,92.47
2022-11-22T01:52:20.482Z,92.71
2022-11-22T01:57:26.115Z,92.96
2022-11-22T02:02:30.374Z,92.88
2022-11-22T02:07:41.021Z,93.05
2022-11-22T02:12:44.399Z,93.50
2022-11-22T02:17:48.654Z,93.31
2022-11-22T02:22:57.271Z,93.15
2022-11-22T02:28:01.608Z,93.20
2022-11-22T02:33:04.738Z,93.33
2022-11-22T02:38:10.507Z,92.63
2022-11-22T02:43:18.009Z,92.44
2022-11-22T02:48:20.872Z,92.42
2022-11-22T02:53:23.790Z,92.62
2022-11-22T02:58:28.090Z,92.70
2022-11-22T03:03:31.685Z,93.15
2022-11-22T03:08:35.033Z,93.33
2022-11-22T03:13:39.438Z,92.69
2022-11-22T03:18:42.398Z,92.13
2022-11-22T03:23:45.267Z,91.56
2022-11-22T03:28:49.491Z,90.97
2022-11-22T03:33:52.503Z,90.70
2022-11-22T03:38:55.380Z,91.22
2022-11-22T03:43:59.746Z,91.97
2022-11-22T03:49:02.642Z,93.56
2022-11-22T03:54:05.988Z,93.73
2022-11-22T03:59:10.282Z,93.81
2022-11-22T04:04:13.318Z,93.69
2022-11-22T04:09:16.549Z,93.72
2022-11-22T04:14:38.054Z,93.41
2022-11-22T04:20:01.717Z,93.26
2022-11-22T04:25:17.078Z,92.44
2022-11-22T04:30:21.511Z,91.83
2022-11-22T04:35:24.371Z,91.40
2022-11-22T04:40:27.246Z,91.42
2022-11-22T04:45:31.549Z,91.18
2022-11-22T04:50:52.442Z,90.54
2022-11-22T04:55:55.445Z,90.07
2022-11-22T05:01:00.195Z,90.25
2022-11-22T05:06:04.267Z,91.61
2022-11-22T05:11:07.209Z,92.58
2022-11-22T05:16:13.614Z,92.63
2022-11-22T05:21:16.525Z,92.75
2022-11-22T05:26:19.548Z,92.08
2022-11-22T05:31:27.171Z,92.89
2022-11-22T05:36:32.900Z,93.03
2022-11-22T05:41:35.878Z,93.24
2022-11-22T05:46:40.149Z,92.81
2022-11-22T05:51:43.077Z,92.90
2022-11-22T05:56:45.941Z,92.71
2022-11-22T06:01:50.183Z,93.49
2022-11-22T06:06:53.099Z,93.14
2022-11-22T06:11:55.998Z,93.25
2022-11-22T06:17:00.265Z,92.52
2022-11-22T06:22:03.163Z,92.20
2022-11-22T06:27:06.000Z,91.75
2022-11-22T06:32:10.251Z,93.06
2022-11-22T06:37:15.984Z,92.65
2022-11-22T06:42:19.265Z,92.53
2022-11-22T06:47:23.542Z,93.18
2022-11-22T06:52:27.116Z,93.21
2022-11-22T06:57:29.953Z,92.53
2022-11-22T07:02:34.212Z,91.66
2022-11-22T07:07:37.142Z,92.51
2022-11-22T07:12:40.107Z,92.63
2022-11-22T07:17:44.649Z,92.36
2022-11-22T07:22:48.759Z,92.43
2022-11-22T07:27:53.414Z,92.03
2022-11-22T07:32:57.633Z,92.18
2022-11-22T07:38:00.603Z,91.30
2022-11-22T07:43:04.200Z,91.55
2022-11-22T07:48:08.728Z,91.21
2022-11-22T07:53:11.734Z,90.33
2022-11-22T07:58:14.668Z,89.76
2022-11-22T08:03:22.683Z,90.23
2022-11-22T08:08:28.574Z,89.37
2022-11-22T08:13:32.305Z,88.87
2022-11-22T08:18:37.696Z,89.37
2022-11-22T08:23:41.638Z,88.95
2022-11-22T08:28:44.900Z,88.79
2022-11-22T08:33:49.489Z,87.74
2022-11-22T08:38:52.360Z,86.57
2022-11-22T08:43:55.364Z,86.42
2022-11-22T08:48:59.632Z,86.13
2022-11-22T08:54:02.484Z,85.31
2022-11-22T08:59:05.476Z,85.99
2022-11-22T09:04:10.721Z,84.86
2022-11-22T09:14:36.786Z,83.87
2022-11-22T09:19:41.020Z,83.72
2022-11-22T09:24:43.939Z,85.24
2022-11-22T09:29:46.851Z,85.16
2022-11-22T09:34:51.125Z,83.94
2022-11-22T09:39:54.009Z,82.50
2022-11-22T09:45:16.132Z,83.12
2022-11-22T09:50:29.631Z,82.08
2022-11-22T09:55:37.715Z,83.33
2022-11-22T10:00:44.384Z,84.50
2022-11-22T10:05:53.709Z,84.12
2022-11-22T10:10:59.649Z,83.42
2022-11-22T10:16:08.522Z,83.41
2022-11-22T10:21:15.042Z,82.78
2022-11-22T10:26:25.067Z,84.26
2022-11-22T10:31:33.808Z,83.33
2022-11-22T10:36:44.873Z,83.05
2022-11-22T10:42:01.654Z,81.82
2022-11-22T10:47:15.050Z,80.17
2022-11-22T10:52:29.598Z,78.93
2022-11-22T10:57:39.735Z,80.27
2022-11-22T11:03:06.201Z,79.56
2022-11-22T11:08:42.049Z,79.95
2022-11-22T11:13:49.394Z,80.11
2022-11-22T11:18:57.080Z,79.97
2022-11-22T11:24:01.367Z,79.48
2022-11-22T11:29:38.431Z,79.42
2022-11-22T11:34:45.628Z,78.90
2022-11-22T11:39:49.938Z,78.17
2022-11-22T11:44:53.146Z,79.06
2022-11-22T11:49:56.042Z,76.63
2022-11-22T11:55:03.413Z,77.85
2022-11-22T12:00:20.281Z,78.02
2022-11-22T12:05:29.006Z,77.98
2022-11-22T12:10:45.250Z,77.94
2022-11-22T12:15:57.966Z,77.66
2022-11-22T12:21:07.462Z,78.38
2022-11-22T12:26:11.951Z,79.00
2022-11-22T12:31:25.051Z,78.57
2022-11-22T12:36:43.235Z,78.01
2022-11-22T12:41:51.061Z,79.66
2022-11-22T12:46:58.534Z,78.71
2022-11-22T12:52:10.651Z,79.22
2022-11-22T12:57:24.194Z,79.73
2022-11-22T13:02:36.236Z,79.76
2022-11-22T13:07:54.909Z,80.74
2022-11-22T13:13:01.946Z,80.47
2022-11-22T13:18:10.524Z,79.87
2022-11-22T13:23:36.070Z,78.24
2022-11-22T13:28:42.079Z,78.72
2022-11-22T13:33:54.924Z,78.53
2022-11-22T13:38:59.592Z,80.42
2022-11-22T13:44:18.877Z,79.25
2022-11-22T13:49:46.821Z,81.75
2022-11-22T13:55:28.928Z,81.95
2022-11-22T14:00:42.867Z,81.58
2022-11-22T14:05:49.910Z,82.00
2022-11-22T14:11:12.107Z,81.14
2022-11-22T14:16:30.331Z,84.99
2022-11-22T14:21:57.426Z,82.88
2022-11-22T14:27:11.160Z,83.21
2022-11-22T14:32:19.204Z,83.45
2022-11-22T14:37:46.652Z,83.28
2022-11-22T14:42:53.871Z,83.37
2022-11-22T14:48:06.496Z,83.57
2022-11-22T14:53:21.198Z,83.62
2022-11-22T14:58:29.576Z,84.23
2022-11-22T15:09:16.117Z,84.23
2022-11-22T15:09:53.325Z,84.05
2022-11-22T15:58:57.173Z,84.65
2022-11-22T16:04:00.737Z,84.50
2022-11-22T16:09:06.445Z,84.50
2022-11-22T16:14:41.228Z,84.28
2022-11-22T16:19:44.184Z,83.82
2022-11-22T16:24:48.557Z,84.24
2022-11-22T16:29:52.561Z,84.46
2022-11-22T16:35:21.720Z,84.20
2022-11-22T16:40:19.776Z,84.25
2022-11-22T16:45:23.381Z,84.77
2022-11-22T16:50:26.428Z,84.11
2022-11-22T16:55:30.704Z,84.07
2022-11-22T17:00:35.388Z,84.21
2022-11-22T17:05:38.440Z,84.55
2022-11-22T17:10:45.520Z,84.41
2022-11-22T17:15:48.996Z,83.99
2022-11-22T17:20:51.905Z,85.21
2022-11-22T17:25:56.173Z,83.43
2022-11-22T17:31:00.246Z,84.48
2022-11-22T17:36:03.130Z,84.88
2022-11-22T17:41:07.454Z,85.19
2022-11-22T17:46:10.351Z,84.92
2022-11-22T17:51:14.034Z,83.91
2022-11-22T17:56:18.361Z,84.81
2022-11-22T18:01:22.800Z,83.89
2022-11-22T18:06:26.798Z,84.67
2022-11-22T18:11:31.123Z,83.61
2022-11-22T18:16:34.024Z,84.04
2022-11-22T18:21:38.136Z,84.80
2022-11-22T18:26:42.611Z,86.02
2022-11-22T18:31:52.310Z,84.62
2022-11-22T18:37:09.630Z,84.38
2022-11-22T18:42:16.780Z,85.13
2022-11-22T18:47:19.769Z,85.14
2022-11-22T18:52:23.113Z,86.36
2022-11-22T18:57:27.666Z,86.38
2022-11-22T19:02:30.590Z,86.95
2022-11-22T19:07:33.500Z,86.20
2022-11-22T19:12:37.746Z,86.08
2022-11-22T19:17:41.032Z,85.99
2022-11-22T19:22:43.932Z,86.25
2022-11-22T19:27:49.681Z,87.78
2022-11-22T19:32:52.569Z,86.83
2022-11-22T19:37:55.531Z,86.49
2022-11-22T19:42:59.806Z,89.09
2022-11-22T19:48:02.667Z,88.31
2022-11-22T19:53:05.904Z,88.25
2022-11-22T19:58:10.186Z,87.55
2022-11-22T20:03:14.394Z,87.83
2022-11-22T20:08:17.286Z,87.83
2022-11-22T20:13:21.507Z,87.50
2022-11-22T20:18:24.418Z,87.55
2022-11-22T20:23:27.318Z,86.95
2022-11-22T20:28:31.940Z,86.79
2022-11-22T20:33:35.920Z,87.31
2022-11-22T20:38:40.522Z,87.24
2022-11-22T20:43:45.277Z,86.88
2022-11-22T20:48:49.242Z,87.04
2022-11-22T20:53:52.669Z,87.12
2022-11-22T20:58:56.944Z,86.79
2022-11-22T21:03:59.921Z,87.63
2022-11-22T21:09:03.009Z,86.90
2022-11-22T21:14:07.403Z,86.59
2022-11-22T21:19:10.710Z,86.89
2022-11-22T21:24:14.131Z,86.10
2022-11-22T21:29:18.362Z,86.17
2022-11-22T21:34:21.219Z,86.26
2022-11-22T21:39:24.101Z,86.99
2022-11-22T21:44:28.442Z,86.55
2022-11-22T21:49:31.524Z,86.09
2022-11-22T21:54:34.587Z,86.10
2022-11-22T21:59:38.842Z,86.37
2022-11-22T22:04:41.754Z,86.68
2022-11-22T22:09:44.650Z,86.27
2022-11-22T22:14:48.855Z,86.97
2022-11-22T22:19:53.271Z,86.68
2022-11-22T22:24:56.136Z,86.73
2022-11-22T22:30:00.461Z,86.23
2022-11-22T22:35:03.796Z,86.33
2022-11-22T22:40:07.713Z,86.61
2022-11-22T22:45:12.558Z,86.64
2022-11-22T22:50:16.149Z,86.55
2022-11-22T22:55:19.066Z,87.08
2022-11-22T23:00:23.524Z,87.64
2022-11-22T23:05:26.444Z,87.64
2022-11-22T23:10:29.366Z,87.92
2022-11-22T23:15:56.849Z,88.66
2022-11-22T23:20:59.834Z,88.45
2022-11-22T23:26:04.040Z,87.76
2022-11-22T23:31:10.097Z,87.99
2022-11-22T23:36:14.554Z,87.21
2022-11-22T23:41:20.054Z,87.37
2022-11-22T23:46:27.395Z,86.79
2022-11-22T23:51:31.721Z,87.13
2022-11-22T23:56:36.365Z,86.89
